Flight Track Log - Related Links

Times and Time Zones

All times are in EDT time to prevent confusion due to time zone crossing. See the EZY4672 flight status page for this flight to view local times or setup timezone preferences in your user account.

Time Position Orientation Groundspeed Altitude Reporting Facility
EDT Latitude Longitude Course Direction KTS MPH feet Rate Location/Type
Wed 12:57:00 AM 46.5657 9.3118 23° Northeast  Level Estimated
Wed 12:58:00 AM 46.6375 9.3576 24° Northeast  Level Estimated
Wed 12:59:00 AM 46.7092 9.4034 24° Northeast  Level Estimated
Wed 01:00:00 AM 46.7818 9.4499 24° Northeast  Level Estimated
Wed 01:01:00 AM 46.8543 9.4965 24° Northeast  Level Estimated
Wed 01:02:00 AM 46.9268 9.5432 24° Northeast  Level Estimated
Wed 01:03:00 AM 46.9992 9.5900 24° Northeast  Level Estimated
Wed 01:04:00 AM 47.0717 9.6370 24° Northeast  Level Estimated
Wed 01:05:00 AM 47.1441 9.6841 24° Northeast  Level Estimated
Wed 01:06:00 AM 47.2165 9.7313 24° Northeast  Level Estimated
Wed 01:07:00 AM 47.2889 9.7787 24° Northeast  Level Estimated
Wed 01:08:00 AM 47.3613 9.8262 24° Northeast  Level Estimated
Wed 01:09:00 AM 47.4337 9.8738 24° Northeast  Level Estimated
Wed 01:10:00 AM 47.5060 9.9215 24° Northeast  Level Estimated
Wed 01:11:00 AM 47.5783 9.9694 24° Northeast  Level Estimated
Wed 01:12:00 AM 47.6506 10.0174 24° Northeast  Level Estimated
Wed 01:13:00 AM 47.7229 10.0656 24° Northeast  Level Estimated
Wed 01:14:00 AM 47.7952 10.1138 24° Northeast  Level Estimated
Wed 01:15:00 AM 47.8674 10.1623 24° Northeast  Level Estimated
Wed 01:16:00 AM 47.9396 10.2108 24° Northeast  Level Estimated
Wed 01:17:00 AM 48.0118 10.2595 24° Northeast  Level Estimated
Wed 01:18:00 AM 48.0840 10.3083 24° Northeast  Level Estimated
Wed 01:19:00 AM 48.1561 10.3573 24° Northeast  Level Estimated
Wed 01:20:00 AM 48.2282 10.4064 24° Northeast  Level Estimated
Wed 01:21:00 AM 48.3004 10.4556 24° Northeast  Level Estimated
Wed 01:22:00 AM 48.3724 10.5050 24° Northeast  Level Estimated
Wed 01:23:00 AM 48.4445 10.5545 24° Northeast  Level Estimated
Wed 01:24:00 AM 48.5166 10.6041 25° Northeast  Level Estimated
Wed 01:25:00 AM 48.5886 10.6539 25° Northeast  Level Estimated
Wed 01:26:00 AM 48.6606 10.7038 25° Northeast  Level Estimated
Wed 01:27:00 AM 48.7326 10.7539 25° Northeast  Level Estimated
Wed 01:28:00 AM 48.8045 10.8041 25° Northeast  Level Estimated
Wed 01:29:00 AM 48.8765 10.8545 25° Northeast  Level Estimated
Wed 01:30:00 AM 48.9484 10.9050 25° Northeast  Level Estimated
Wed 01:31:00 AM 49.0203 10.9557 25° Northeast  Level Estimated
Wed 01:32:00 AM 49.0922 11.0065 25° Northeast  Level Estimated
Wed 01:33:00 AM 49.1640 11.0575 25° Northeast  Level Estimated
Wed 01:34:00 AM 49.2358 11.1086 25° Northeast  Level Estimated
Wed 01:35:00 AM 49.3077 11.1598 25° Northeast  Level Estimated
Wed 01:36:00 AM 49.3794 11.2112 25° Northeast  Level Estimated
Wed 01:37:00 AM 49.4512 11.2627 25° Northeast  Level Estimated
Wed 01:38:00 AM 49.5229 11.3145 25° Northeast  Level Estimated
Wed 01:39:00 AM 49.5946 11.3663 25° Northeast  Level Estimated
Wed 01:40:00 AM 49.6663 11.4183 25° Northeast  Level Estimated
Wed 01:41:00 AM 49.7380 11.4705 25° Northeast  Level Estimated
Wed 01:42:00 AM 49.8096 11.5228 25° Northeast  Level Estimated
Wed 01:43:00 AM 49.8813 11.5752 25° Northeast  Level Estimated
Wed 01:44:00 AM 49.9529 11.6279 25° Northeast  Level Estimated
Wed 01:45:00 AM 50.0244 11.6806 25° Northeast  Level Estimated
Wed 01:46:00 AM 50.0960 11.7336 25° Northeast  Level Estimated
Wed 01:47:00 AM 50.1675 11.7867 25° Northeast  Level Estimated
Wed 01:48:00 AM 50.2390 11.8399 25° Northeast  Level Estimated
Wed 01:49:00 AM 50.3105 11.8933 26° Northeast  Level Estimated
Wed 01:50:00 AM 50.3819 11.9469 26° Northeast  Level Estimated
Wed 01:51:00 AM 50.4534 12.0007 26° Northeast  Level Estimated
Wed 01:52:00 AM 50.5248 12.0546 26° Northeast  Level Estimated
Wed 01:53:00 AM 50.5961 12.1086 26° Northeast  Level Estimated
Wed 01:54:00 AM 50.6741 12.1679 26° Northeast  Level Estimated
Wed 01:55:00 AM 50.7521 12.2274 26° Northeast  Level Estimated
Wed 01:56:00 AM 50.8300 12.2871 26° Northeast  Level Estimated
Wed 01:57:00 AM 50.9079 12.3469 26° Northeast  Level Estimated
Wed 01:58:00 AM 50.9858 12.4070 26° Northeast  Level Estimated
Wed 01:59:00 AM 51.0636 12.4673 26° Northeast  Level Estimated
Wed 02:00:00 AM 51.1414 12.5278 26° Northeast  Level Estimated
Wed 02:01:00 AM 51.2192 12.5885 26° Northeast  Level Estimated
Wed 02:02:00 AM 51.2969 12.6494 26° Northeast  Level Estimated
Wed 02:03:00 AM 51.3746 12.7105 26° Northeast  Level Estimated
Wed 02:04:00 AM 51.4523 12.7718 26° Northeast  Level Estimated
Wed 02:05:00 AM 51.5300 12.8333 26° Northeast  Level Estimated
Wed 02:06:00 AM 51.6076 12.8950 26° Northeast  Level Estimated
Wed 02:07:00 AM 51.6852 12.9569 26° Northeast  Level Estimated
Wed 02:08:00 AM 51.7627 13.0191 26° Northeast  Level Estimated
Wed 02:09:00 AM 51.8402 13.0814 26° Northeast  Level Estimated
Wed 02:10:00 AM 51.9177 13.1440 26° Northeast  Level Estimated
Wed 02:11:00 AM 51.9952 13.2068 27° Northeast  Level Estimated
Wed 02:12:00 AM 52.0726 13.2698 27° Northeast  Level Estimated
Wed 02:13:00 AM 52.1499 13.3330 27° Northeast  Level Estimated
Wed 02:14:00 AM 52.2273 13.3965 27° Northeast  Level Estimated
Wed 02:15:00 AM 52.3046 13.4602 27° Northeast  Level Estimated
Wed 02:16:00 AM 52.3800 13.5225 27° Northeast  Level Estimated
Wed 02:17:00 AM 52.3800 13.5225 North  Level Estimated
Wed 02:18:00 AM 52.3800 13.5225 North  Level Estimated
Wed 02:19:00 AM 52.3800 13.5225 North  Level Estimated
Wed 02:20:00 AM 52.3800 13.5225 North  Level Estimated
Wed 02:21:00 AM 52.3800 13.5225 North  Level Estimated
Wed 02:22:00 AM 52.3800 13.5225 North  Level Estimated
Wed 02:23:00 AM 52.3800 13.5225 North  Level Estimated
Wed 02:24:00 AM 52.3800 13.5225 North  Level Estimated
Wed 02:25:00 AM 52.3800 13.5225 North  Level Estimated
Wed 02:26:00 AM 52.3800 13.5225 North  Level Estimated

Login

Don't have an account? Register now (free) for customized features, flight alerts, and more!